createdAt,value
2024-03-05T00:00:58.385Z,8.18
2024-03-05T00:01:58.320Z,8.12
2024-03-05T00:02:58.298Z,8.08
2024-03-05T00:03:58.277Z,8.09
2024-03-05T00:04:58.335Z,8.12
2024-03-05T00:05:58.290Z,8.16
2024-03-05T00:06:58.289Z,8.05
2024-03-05T00:07:58.271Z,8.10
2024-03-05T00:08:58.253Z,8.09
2024-03-05T00:09:58.225Z,8.05
2024-03-05T00:10:58.315Z,8.01
2024-03-05T00:11:58.291Z,8.00
2024-03-05T00:12:58.224Z,8.05
2024-03-05T00:13:58.244Z,8.10
2024-03-05T00:14:58.163Z,8.01
2024-03-05T00:15:58.145Z,8.01
2024-03-05T00:16:58.150Z,8.01
2024-03-05T00:17:58.200Z,8.00
2024-03-05T00:18:58.129Z,8.03
2024-03-05T00:19:58.144Z,8.00
2024-03-05T00:20:58.112Z,8.01
2024-03-05T00:21:58.080Z,8.00
2024-03-05T00:22:58.143Z,8.06
2024-03-05T00:23:58.078Z,7.93
2024-03-05T00:24:58.152Z,8.01
2024-03-05T00:25:58.087Z,8.00
2024-03-05T00:26:58.039Z,7.94
2024-03-05T00:27:58.010Z,7.91
2024-03-05T00:28:58.102Z,8.06
2024-03-05T00:29:58.004Z,7.95
2024-03-05T00:30:57.988Z,8.00
2024-03-05T00:31:58.038Z,7.91
2024-03-05T00:32:58.013Z,7.94
2024-03-05T00:33:58.005Z,7.94
2024-03-05T00:34:57.966Z,7.97
2024-03-05T00:35:58.034Z,7.98
2024-03-05T00:36:57.924Z,8.00
2024-03-05T00:37:57.935Z,8.01
2024-03-05T00:38:57.915Z,8.05
2024-03-05T00:39:57.888Z,8.06
2024-03-05T00:40:57.906Z,7.95
2024-03-05T00:41:57.894Z,8.06
2024-03-05T00:42:57.834Z,7.98
2024-03-05T00:43:57.983Z,7.90
2024-03-05T00:44:57.817Z,7.98
2024-03-05T00:45:57.821Z,7.93
2024-03-05T00:46:57.971Z,7.91
2024-03-05T00:47:57.886Z,7.93
2024-03-05T00:48:57.764Z,7.82
2024-03-05T00:49:57.799Z,7.95
2024-03-05T00:50:57.741Z,7.82
2024-03-05T00:51:57.761Z,7.90
2024-03-05T00:52:57.776Z,7.85
2024-03-05T00:53:57.742Z,7.76
2024-03-05T00:54:57.703Z,7.75
2024-03-05T00:55:57.778Z,7.83
2024-03-05T00:56:57.704Z,7.77
2024-03-05T00:57:57.661Z,7.75
2024-03-05T00:58:57.673Z,7.75
2024-03-05T00:59:57.811Z,7.70
2024-03-05T01:00:57.625Z,7.70
2024-03-05T01:01:57.723Z,7.66
2024-03-05T01:02:57.609Z,7.66
2024-03-05T01:03:57.598Z,7.61
2024-03-05T01:04:57.636Z,7.58
2024-03-05T01:05:57.604Z,7.53
2024-03-05T01:06:57.609Z,7.51
2024-03-05T01:07:57.693Z,7.53
2024-03-05T01:08:57.536Z,7.58
2024-03-05T01:09:57.530Z,7.43
2024-03-05T01:10:57.552Z,7.50
2024-03-05T01:11:57.607Z,7.47
2024-03-05T01:12:57.517Z,7.54
2024-03-05T01:13:57.542Z,7.45
2024-03-05T01:14:57.479Z,7.40
2024-03-05T01:15:57.477Z,7.33
2024-03-05T01:16:57.559Z,7.40
2024-03-05T01:17:57.526Z,7.40
2024-03-05T01:18:57.542Z,7.35
2024-03-05T01:19:57.490Z,7.36
2024-03-05T01:20:57.408Z,7.38
2024-03-05T01:21:57.392Z,7.39
2024-03-05T01:22:57.450Z,7.35
2024-03-05T01:23:57.393Z,7.32
2024-03-05T01:24:57.361Z,7.23
2024-03-05T01:25:57.516Z,7.39
2024-03-05T01:26:57.331Z,7.29
2024-03-05T01:27:57.331Z,7.29
2024-03-05T01:28:57.424Z,7.29
2024-03-05T01:29:57.347Z,7.32
2024-03-05T01:30:57.291Z,7.29
2024-03-05T01:31:57.698Z,7.32
2024-03-05T01:32:57.373Z,7.11
2024-03-05T01:33:57.319Z,7.15
2024-03-05T01:34:57.334Z,7.11
2024-03-05T01:35:57.297Z,7.14
2024-03-05T01:36:57.218Z,7.10
2024-03-05T01:37:57.312Z,7.15
2024-03-05T01:38:57.214Z,7.15
2024-03-05T01:39:57.208Z,7.13
2024-03-05T01:40:57.429Z,7.10
2024-03-05T01:41:57.231Z,7.10
2024-03-05T01:42:57.175Z,7.06
2024-03-05T01:43:57.165Z,7.13
2024-03-05T01:44:57.183Z,7.10
2024-03-05T01:45:57.214Z,7.06
2024-03-05T01:46:57.519Z,7.05
2024-03-05T01:47:57.170Z,7.10
2024-03-05T01:48:57.086Z,7.05
2024-03-05T01:49:57.252Z,7.06
2024-03-05T01:50:57.065Z,7.13
2024-03-05T01:51:57.050Z,6.93
2024-03-05T01:52:57.108Z,7.02
2024-03-05T01:53:57.068Z,6.93
2024-03-05T01:55:00.082Z,6.95
2024-03-05T01:55:57.096Z,6.97
2024-03-05T01:56:56.994Z,6.96
2024-03-05T01:57:56.993Z,6.96
2024-03-05T01:58:56.996Z,6.88
2024-03-05T01:59:56.985Z,6.89
2024-03-05T02:00:57.051Z,6.88
2024-03-05T02:01:56.976Z,6.85
2024-03-05T02:02:57.098Z,6.84
2024-03-05T02:03:56.917Z,6.92
2024-03-05T02:04:56.923Z,6.85
2024-03-05T02:05:56.907Z,6.77
2024-03-05T02:06:56.909Z,6.79
2024-03-05T02:07:57.029Z,6.84
2024-03-05T02:08:56.859Z,6.79
2024-03-05T02:09:56.848Z,6.74
2024-03-05T02:10:56.894Z,6.75
2024-03-05T02:11:59.765Z,6.66
2024-03-05T02:12:57.822Z,6.75
2024-03-05T02:13:56.840Z,6.64
2024-03-05T02:14:56.794Z,6.69
2024-03-05T02:15:56.780Z,6.72
2024-03-05T02:16:56.847Z,6.63
2024-03-05T02:17:56.867Z,6.69
2024-03-05T02:18:56.790Z,6.69
2024-03-05T02:19:56.790Z,6.67
2024-03-05T02:20:56.730Z,6.62
2024-03-05T02:21:56.783Z,6.62
2024-03-05T02:22:56.804Z,6.52
2024-03-05T02:23:56.771Z,6.59
2024-03-05T02:24:56.691Z,6.59
2024-03-05T02:25:56.751Z,6.54
2024-03-05T02:26:56.657Z,6.59
2024-03-05T02:27:56.642Z,6.54
2024-03-05T02:28:56.667Z,6.51
2024-03-05T02:29:56.662Z,6.54
2024-03-05T02:30:56.615Z,6.57
2024-03-05T02:31:56.614Z,6.48
2024-03-05T02:32:56.628Z,6.49
2024-03-05T02:33:56.574Z,6.46
2024-03-05T02:34:56.599Z,6.48
2024-03-05T02:35:56.608Z,6.45
2024-03-05T02:36:56.538Z,6.42
2024-03-05T02:37:56.581Z,6.42
2024-03-05T02:38:56.538Z,6.42
2024-03-05T02:39:56.506Z,6.46
2024-03-05T02:40:56.580Z,6.39
2024-03-05T02:41:56.520Z,6.45
2024-03-05T02:42:56.495Z,6.44
2024-03-05T02:43:56.497Z,6.46
2024-03-05T02:44:56.457Z,6.48
2024-03-05T02:45:56.446Z,6.44
2024-03-05T02:46:56.524Z,6.49
2024-03-05T02:47:56.560Z,6.52
2024-03-05T02:48:56.484Z,6.60
2024-03-05T02:49:56.470Z,6.54
2024-03-05T02:50:56.407Z,6.59
2024-03-05T02:51:56.412Z,6.64
2024-03-05T02:52:56.459Z,6.67
2024-03-05T02:53:56.381Z,6.69
2024-03-05T02:54:56.334Z,6.64
2024-03-05T02:55:56.463Z,6.67
2024-03-05T02:56:56.320Z,6.74
2024-03-05T02:57:56.307Z,6.75
2024-03-05T02:58:56.394Z,6.67
2024-03-05T02:59:56.390Z,6.69
2024-03-05T03:00:56.299Z,6.69
2024-03-05T03:01:56.505Z,6.79
2024-03-05T03:02:56.251Z,6.82
2024-03-05T03:03:56.254Z,6.82
2024-03-05T03:04:56.299Z,6.85
2024-03-05T03:05:56.238Z,6.87
2024-03-05T03:06:56.197Z,6.88
2024-03-05T03:07:56.271Z,6.85
2024-03-05T03:08:56.177Z,6.84
2024-03-05T03:09:56.173Z,6.84
2024-03-05T03:10:56.258Z,6.79
2024-03-05T03:11:56.209Z,6.88
2024-03-05T03:12:56.141Z,6.88
2024-03-05T03:13:56.207Z,6.88
2024-03-05T03:14:56.116Z,6.88
2024-03-05T03:15:56.141Z,6.92
2024-03-05T03:16:56.334Z,6.85
2024-03-05T03:17:56.159Z,6.81
2024-03-05T03:18:56.066Z,6.88
2024-03-05T03:19:56.076Z,6.81
2024-03-05T03:20:56.071Z,6.78
2024-03-05T03:21:56.029Z,6.69
2024-03-05T03:22:56.174Z,6.78
2024-03-05T03:23:56.085Z,6.69
2024-03-05T03:24:55.994Z,6.82
2024-03-05T03:25:56.057Z,6.70
2024-03-05T03:26:55.972Z,6.70
2024-03-05T03:27:55.967Z,6.66
2024-03-05T03:28:56.162Z,6.69
2024-03-05T03:29:55.987Z,6.74
2024-03-05T03:30:56.037Z,6.70
2024-03-05T03:31:56.039Z,6.67
2024-03-05T03:32:55.974Z,6.74
2024-03-05T03:33:55.901Z,6.75
2024-03-05T03:34:55.987Z,6.72
2024-03-05T03:35:55.885Z,6.69
2024-03-05T03:36:55.886Z,6.74
2024-03-05T03:37:55.925Z,6.70
2024-03-05T03:38:55.913Z,6.64
2024-03-05T03:39:55.823Z,6.66
2024-03-05T03:40:55.884Z,6.72
2024-03-05T03:41:55.929Z,6.67
2024-03-05T03:42:55.809Z,6.67
2024-03-05T03:43:55.844Z,6.67
2024-03-05T03:44:55.823Z,6.63
2024-03-05T03:45:55.761Z,6.64
2024-03-05T03:46:55.952Z,6.66
2024-03-05T03:47:55.868Z,6.54
2024-03-05T03:48:55.747Z,6.60
2024-03-05T03:49:55.861Z,6.56
2024-03-05T03:50:55.699Z,6.62
2024-03-05T03:51:55.754Z,6.54
2024-03-05T03:52:55.761Z,6.51
2024-03-05T03:53:55.685Z,6.62
2024-03-05T03:54:55.653Z,6.51
2024-03-05T03:55:55.672Z,6.60
2024-03-05T03:56:55.671Z,6.59
2024-03-05T03:57:55.660Z,6.60
2024-03-05T03:58:55.742Z,6.54
2024-03-05T03:59:55.615Z,6.54
2024-03-05T04:00:55.638Z,6.57
2024-03-05T04:01:55.610Z,6.60
2024-03-05T04:02:55.580Z,6.59
2024-03-05T04:03:55.552Z,6.60
2024-03-05T04:04:55.639Z,6.60
2024-03-05T04:05:55.600Z,6.59
2024-03-05T04:06:55.567Z,6.54
2024-03-05T04:07:55.689Z,6.62
2024-03-05T04:08:55.610Z,6.57
2024-03-05T04:09:55.489Z,6.57
2024-03-05T04:10:55.676Z,6.60
2024-03-05T04:11:55.539Z,6.60
2024-03-05T04:12:55.452Z,6.57
2024-03-05T04:13:55.560Z,6.60
2024-03-05T04:14:55.436Z,6.54
2024-03-05T04:15:55.427Z,6.56
2024-03-05T04:16:55.641Z,6.60
2024-03-05T04:17:55.459Z,6.64
2024-03-05T04:18:55.388Z,6.54
2024-03-05T04:19:55.430Z,6.51
2024-03-05T04:20:55.379Z,6.59
2024-03-05T04:21:55.392Z,6.59
2024-03-05T04:22:55.483Z,6.60
2024-03-05T04:23:55.341Z,6.51
2024-03-05T04:24:55.343Z,6.49
2024-03-05T04:25:55.393Z,6.54
2024-03-05T04:26:55.323Z,6.54
2024-03-05T04:27:55.302Z,6.51
2024-03-05T04:28:55.323Z,6.51
2024-03-05T04:29:55.270Z,6.41
2024-03-05T04:30:55.249Z,6.48
2024-03-05T04:31:55.251Z,6.49
2024-03-05T04:32:59.520Z,6.44
2024-03-05T04:33:56.263Z,6.41
2024-03-05T04:34:55.227Z,6.42
2024-03-05T04:35:55.220Z,6.39
2024-03-05T04:36:57.274Z,6.42
2024-03-05T04:37:55.336Z,6.31
2024-03-05T04:38:55.154Z,6.38
2024-03-05T04:39:55.146Z,6.35
2024-03-05T04:40:55.207Z,6.30
2024-03-05T04:41:55.193Z,6.31
2024-03-05T04:42:55.111Z,6.28
2024-03-05T04:43:55.191Z,6.33
2024-03-05T04:44:55.088Z,6.26
2024-03-05T04:45:55.081Z,6.27
2024-03-05T04:46:55.285Z,6.27
2024-03-05T04:47:55.182Z,6.16
2024-03-05T04:48:55.045Z,6.16
2024-03-05T04:49:55.067Z,6.19
2024-03-05T04:50:55.018Z,6.22
2024-03-05T04:51:55.006Z,6.17
2024-03-05T04:52:55.443Z,6.19
2024-03-05T04:53:55.018Z,6.20
2024-03-05T04:54:55.008Z,6.16
2024-03-05T04:55:55.004Z,6.12
2024-03-05T04:56:55.018Z,6.14
2024-03-05T04:57:54.960Z,6.17
2024-03-05T04:58:55.024Z,6.14
2024-03-05T04:59:54.945Z,6.08
2024-03-05T05:00:54.913Z,6.11
2024-03-05T05:01:54.966Z,6.08
2024-03-05T05:02:54.888Z,6.07
2024-03-05T05:03:54.875Z,6.11
2024-03-05T05:04:54.950Z,6.16
2024-03-05T05:05:56.683Z,6.09
2024-03-05T05:06:54.969Z,6.01
2024-03-05T05:07:54.955Z,6.04
2024-03-05T05:08:54.816Z,6.11
2024-03-05T05:09:54.804Z,6.14
2024-03-05T05:10:54.978Z,6.17
2024-03-05T05:11:54.967Z,6.17
2024-03-05T05:12:54.820Z,6.12
2024-03-05T05:13:54.833Z,6.16
2024-03-05T05:14:54.750Z,6.12
2024-03-05T05:15:54.787Z,6.14
2024-03-05T05:16:54.867Z,6.08
2024-03-05T05:17:54.817Z,6.14
2024-03-05T05:18:54.707Z,6.19
2024-03-05T05:19:54.907Z,6.14
2024-03-05T05:20:54.684Z,6.14
2024-03-05T05:21:54.712Z,6.16
2024-03-05T05:22:54.719Z,6.14
2024-03-05T05:23:54.675Z,6.16
2024-03-05T05:24:54.633Z,6.24
2024-03-05T05:25:54.646Z,6.19
2024-03-05T05:26:54.746Z,6.17
2024-03-05T05:27:54.627Z,6.20
2024-03-05T05:28:54.812Z,6.19
2024-03-05T05:29:58.688Z,6.24
2024-03-05T05:30:55.565Z,6.11
2024-03-05T05:31:54.613Z,6.22
2024-03-05T05:32:54.647Z,6.20
2024-03-05T05:33:54.548Z,6.16
2024-03-05T05:34:54.558Z,6.17
2024-03-05T05:35:54.539Z,6.16
2024-03-05T05:36:54.703Z,6.19
2024-03-05T05:37:54.530Z,6.26
2024-03-05T05:38:54.485Z,6.20
2024-03-05T05:39:54.468Z,6.22
2024-03-05T05:40:54.467Z,6.17
2024-03-05T05:41:54.456Z,6.19
2024-03-05T05:42:54.431Z,6.24
2024-03-05T05:43:54.512Z,6.26
2024-03-05T05:44:54.488Z,6.28
2024-03-05T05:45:54.396Z,6.30
2024-03-05T05:46:54.465Z,6.36
2024-03-05T05:47:54.577Z,6.33
2024-03-05T05:48:54.367Z,6.35
2024-03-05T05:49:54.386Z,6.27
2024-03-05T05:50:54.343Z,6.33
2024-03-05T05:51:54.330Z,6.36
2024-03-05T05:52:54.797Z,6.36
2024-03-05T05:53:54.348Z,6.41
2024-03-05T05:54:54.309Z,6.28
2024-03-05T05:55:54.452Z,6.36
2024-03-05T05:56:54.348Z,6.41
2024-03-05T05:57:54.284Z,6.36
2024-03-05T05:58:54.302Z,6.33
2024-03-05T05:59:54.271Z,6.36
2024-03-05T06:00:54.370Z,6.35
2024-03-05T06:01:54.254Z,6.42
2024-03-05T06:02:54.246Z,6.38
2024-03-05T06:03:54.191Z,6.36
2024-03-05T06:04:54.248Z,6.36
2024-03-05T06:05:54.201Z,6.45
2024-03-05T06:06:54.166Z,6.51
2024-03-05T06:07:54.215Z,6.44
2024-03-05T06:08:54.168Z,6.56
2024-03-05T06:09:54.142Z,6.54
2024-03-05T06:10:54.348Z,6.59
2024-03-05T06:11:54.154Z,6.59
2024-03-05T06:12:54.093Z,6.64
2024-03-05T06:13:54.217Z,6.67
2024-03-05T06:14:54.068Z,6.72
2024-03-05T06:15:54.132Z,6.77
2024-03-05T06:16:54.110Z,6.87
2024-03-05T06:17:54.132Z,6.88
2024-03-05T06:18:54.024Z,6.87
2024-03-05T06:19:55.194Z,6.89
2024-03-05T06:20:54.158Z,7.02
2024-03-05T06:21:54.070Z,6.93
2024-03-05T06:22:54.064Z,6.93
2024-03-05T06:23:54.016Z,7.03
2024-03-05T06:24:53.955Z,6.97
2024-03-05T06:25:53.964Z,7.07
2024-03-05T06:26:53.957Z,7.11
2024-03-05T06:27:53.925Z,7.20
2024-03-05T06:28:53.923Z,7.28
2024-03-05T06:29:53.927Z,7.31
2024-03-05T06:30:54.010Z,7.23
2024-03-05T06:31:53.945Z,7.38
2024-03-05T06:32:54.038Z,7.38
2024-03-05T06:33:53.872Z,7.40
2024-03-05T06:34:54.007Z,7.54
2024-03-05T06:35:53.863Z,7.56
2024-03-05T06:36:53.821Z,7.61
2024-03-05T06:37:53.835Z,7.63
2024-03-05T06:38:53.808Z,7.73
2024-03-05T06:39:53.861Z,7.80
2024-03-05T06:40:53.891Z,7.79
2024-03-05T06:41:53.797Z,7.88
2024-03-05T06:42:54.233Z,7.90
2024-03-05T06:43:53.803Z,7.90
2024-03-05T06:44:53.733Z,7.93
2024-03-05T06:45:53.713Z,7.98
2024-03-05T06:46:53.742Z,8.15
2024-03-05T06:47:54.646Z,8.03
2024-03-05T06:48:53.758Z,8.08
2024-03-05T06:49:53.720Z,8.12
2024-03-05T06:50:53.883Z,8.13
2024-03-05T06:51:53.701Z,8.19
2024-03-05T06:52:53.759Z,8.16
2024-03-05T06:53:53.642Z,8.26
2024-03-05T06:54:53.670Z,8.19
2024-03-05T06:55:53.730Z,8.27
2024-03-05T06:56:53.648Z,8.33
2024-03-05T06:57:53.582Z,8.30
2024-03-05T06:58:53.641Z,8.33
2024-03-05T06:59:53.583Z,8.36
2024-03-05T07:00:53.567Z,8.36
2024-03-05T07:01:53.618Z,8.55
2024-03-05T07:02:53.527Z,8.52
2024-03-05T07:03:53.694Z,8.55
2024-03-05T07:04:53.564Z,8.61
2024-03-05T07:05:53.533Z,8.71
2024-03-05T07:06:53.490Z,8.79
2024-03-05T07:07:54.540Z,8.71
2024-03-05T07:08:53.462Z,8.78
2024-03-05T07:09:53.458Z,8.82
2024-03-05T07:10:54.080Z,8.89
2024-03-05T07:11:53.544Z,8.97
2024-03-05T07:12:53.416Z,8.99
2024-03-05T07:13:53.449Z,9.11
2024-03-05T07:14:53.397Z,9.25
2024-03-05T07:15:53.431Z,9.28
2024-03-05T07:16:53.414Z,9.39
2024-03-05T07:17:53.421Z,9.44
2024-03-05T07:18:53.375Z,9.59
2024-03-05T07:19:53.408Z,9.61
2024-03-05T07:20:53.355Z,9.74
2024-03-05T07:21:53.370Z,9.79
2024-03-05T07:22:53.498Z,9.95
2024-03-05T07:23:54.817Z,9.97
2024-03-05T07:24:53.407Z,10.02
2024-03-05T07:25:53.317Z,10.12
2024-03-05T07:27:01.136Z,10.33
2024-03-05T07:27:54.300Z,10.40
2024-03-05T07:28:53.286Z,10.44
2024-03-05T07:29:53.258Z,10.46
2024-03-05T07:30:53.236Z,10.60
2024-03-05T07:31:53.238Z,10.78
2024-03-05T07:32:53.257Z,10.79
2024-03-05T07:33:53.898Z,10.93
2024-03-05T07:34:53.233Z,11.00
2024-03-05T07:35:53.182Z,11.12
2024-03-05T07:36:53.168Z,11.17
2024-03-05T07:37:53.181Z,11.29
2024-03-05T07:38:53.124Z,11.47
2024-03-05T07:39:53.121Z,11.45
2024-03-05T07:40:54.157Z,11.63
2024-03-05T07:41:53.116Z,11.54
2024-03-05T07:42:53.309Z,11.68
2024-03-05T07:43:53.418Z,11.81
2024-03-05T07:44:53.050Z,11.87
2024-03-05T07:45:53.069Z,12.02
2024-03-05T07:46:53.090Z,12.17
2024-03-05T07:47:53.114Z,12.17
2024-03-05T07:48:53.001Z,12.27
2024-03-05T07:49:53.054Z,12.32
2024-03-05T07:50:52.983Z,12.40
2024-03-05T07:51:52.971Z,12.50
2024-03-05T07:52:53.009Z,12.58
2024-03-05T07:53:52.989Z,12.65
2024-03-05T07:54:52.940Z,12.68
2024-03-05T07:55:52.983Z,12.83
2024-03-05T07:56:52.927Z,12.79
2024-03-05T07:57:52.985Z,12.90
2024-03-05T07:58:52.937Z,12.95
2024-03-05T07:59:54.681Z,12.98
2024-03-05T08:00:52.916Z,13.05
2024-03-05T08:01:52.965Z,13.12
2024-03-05T08:02:52.848Z,13.18
2024-03-05T08:03:52.885Z,13.15
2024-03-05T08:04:52.834Z,13.28
2024-03-05T08:05:52.819Z,13.28
2024-03-05T08:06:55.633Z,13.41
2024-03-05T08:07:52.864Z,13.31
2024-03-05T08:08:52.793Z,13.30
2024-03-05T08:09:52.795Z,13.33
2024-03-05T08:10:52.817Z,13.30
2024-03-05T08:11:52.812Z,13.33
2024-03-05T08:12:52.729Z,13.22
2024-03-05T08:13:52.787Z,13.27
2024-03-05T08:14:52.709Z,13.15
2024-03-05T08:15:52.711Z,13.20
2024-03-05T08:16:52.719Z,13.19
2024-03-05T08:17:52.779Z,13.09
2024-03-05T08:18:52.687Z,13.19
2024-03-05T08:19:52.717Z,13.20
2024-03-05T08:20:52.684Z,13.16
2024-03-05T08:21:52.642Z,13.19
2024-03-05T08:22:52.680Z,13.20
2024-03-05T08:23:52.632Z,13.19
2024-03-05T08:24:52.616Z,13.13
2024-03-05T08:25:52.660Z,13.20
2024-03-05T08:26:52.612Z,13.15
2024-03-05T08:27:52.555Z,13.18
2024-03-05T08:28:52.587Z,13.12
2024-03-05T08:29:52.604Z,13.28
2024-03-05T08:30:53.210Z,13.33
2024-03-05T08:31:52.565Z,13.27
2024-03-05T08:32:52.683Z,13.23
2024-03-05T08:33:52.511Z,13.35
2024-03-05T08:34:52.550Z,13.35
2024-03-05T08:35:52.482Z,13.47
2024-03-05T08:36:52.464Z,13.44
2024-03-05T08:37:52.537Z,13.44
2024-03-05T08:38:52.445Z,13.50
2024-03-05T08:39:53.531Z,13.56
2024-03-05T08:40:52.673Z,13.59
2024-03-05T08:41:52.441Z,13.59
2024-03-05T08:42:52.432Z,13.63
2024-03-05T08:43:52.510Z,13.71
2024-03-05T08:44:52.371Z,13.74
2024-03-05T08:45:52.360Z,13.81
2024-03-05T08:46:52.406Z,13.83
2024-03-05T08:47:52.402Z,13.81
2024-03-05T08:48:52.318Z,13.86
2024-03-05T08:49:52.364Z,13.89
2024-03-05T08:50:52.310Z,13.96
2024-03-05T08:51:52.311Z,14.05
2024-03-05T08:52:52.321Z,14.12
2024-03-05T08:53:52.290Z,14.11
2024-03-05T08:54:52.261Z,14.15
2024-03-05T08:55:52.314Z,14.26
2024-03-05T08:56:52.276Z,14.28
2024-03-05T08:57:52.215Z,14.30
2024-03-05T08:58:52.270Z,14.36
2024-03-05T08:59:52.209Z,14.47
2024-03-05T09:00:52.253Z,14.45
2024-03-05T09:01:52.362Z,14.50
2024-03-05T09:02:52.158Z,14.55
2024-03-05T09:03:52.151Z,14.58
2024-03-05T09:04:52.201Z,14.65
2024-03-05T09:05:52.189Z,14.78
2024-03-05T09:06:52.120Z,14.78
2024-03-05T09:07:52.168Z,14.85
2024-03-05T09:08:52.096Z,14.96
2024-03-05T09:09:52.083Z,14.91
2024-03-05T09:10:52.147Z,14.86
2024-03-05T09:11:52.109Z,14.86
2024-03-05T09:12:52.082Z,15.02
2024-03-05T09:13:52.122Z,15.07
2024-03-05T09:14:52.032Z,15.11
2024-03-05T09:15:52.013Z,15.21
2024-03-05T09:16:52.302Z,15.25
2024-03-05T09:17:52.041Z,15.36
2024-03-05T09:18:51.987Z,15.44
2024-03-05T09:19:52.003Z,15.52
2024-03-05T09:20:51.953Z,15.62
2024-03-05T09:21:51.950Z,15.68
2024-03-05T09:22:52.026Z,15.76
2024-03-05T09:23:52.035Z,15.84
2024-03-05T09:24:51.909Z,15.92
2024-03-05T09:25:51.978Z,15.86
2024-03-05T09:26:51.887Z,15.98
2024-03-05T09:27:51.906Z,16.10
2024-03-05T09:28:51.908Z,16.15
2024-03-05T09:29:51.881Z,16.32
2024-03-05T09:30:51.842Z,16.35
2024-03-05T09:31:51.868Z,16.42
2024-03-05T09:32:51.863Z,16.49
2024-03-05T09:33:51.821Z,16.56
2024-03-05T09:34:51.819Z,16.61
2024-03-05T09:35:51.821Z,16.60
2024-03-05T09:36:51.803Z,16.66
2024-03-05T09:37:51.798Z,16.65
2024-03-05T09:38:51.844Z,16.69
2024-03-05T09:39:51.746Z,16.71
2024-03-05T09:40:51.765Z,16.57
2024-03-05T09:41:51.796Z,16.61
2024-03-05T09:42:51.711Z,16.58
2024-03-05T09:43:53.466Z,16.65
2024-03-05T09:44:51.705Z,16.68
2024-03-05T09:45:51.671Z,16.66
2024-03-05T09:46:51.735Z,16.69
2024-03-05T09:47:51.788Z,16.68
2024-03-05T09:48:51.642Z,16.71
2024-03-05T09:49:51.709Z,16.72
2024-03-05T09:50:51.638Z,16.68
2024-03-05T09:51:51.657Z,16.74
2024-03-05T09:52:51.631Z,16.78
2024-03-05T09:53:51.609Z,16.84
2024-03-05T09:54:51.576Z,16.84
2024-03-05T09:55:51.601Z,16.84
2024-03-05T09:56:51.544Z,16.87
2024-03-05T09:57:51.569Z,16.83
2024-03-05T09:58:51.586Z,16.91
2024-03-05T09:59:51.539Z,16.89
2024-03-05T10:00:51.545Z,16.97
2024-03-05T10:01:51.631Z,16.96
2024-03-05T10:02:51.486Z,16.99
2024-03-05T10:03:51.485Z,16.99
2024-03-05T10:04:51.584Z,17.05
2024-03-05T10:05:51.698Z,17.09
2024-03-05T10:06:51.494Z,17.02
2024-03-05T10:07:51.449Z,17.06
2024-03-05T10:08:51.475Z,17.19
2024-03-05T10:09:51.410Z,17.19
2024-03-05T10:10:51.616Z,17.19
2024-03-05T10:11:51.421Z,17.19
2024-03-05T10:12:51.507Z,17.27
2024-03-05T10:13:51.388Z,17.27
2024-03-05T10:14:53.672Z,17.29
2024-03-05T10:15:51.332Z,17.36
2024-03-05T10:16:51.392Z,17.36
2024-03-05T10:17:51.859Z,17.41
2024-03-05T10:18:51.344Z,17.38
2024-03-05T10:19:51.397Z,17.45
2024-03-05T10:20:51.274Z,17.48
2024-03-05T10:21:51.340Z,17.41
2024-03-05T10:22:51.278Z,17.52
2024-03-05T10:23:51.273Z,17.48
2024-03-05T10:24:51.233Z,17.57
2024-03-05T10:25:51.326Z,17.54
2024-03-05T10:26:51.209Z,17.56
2024-03-05T10:27:51.196Z,17.65
2024-03-05T10:28:51.209Z,17.68
2024-03-05T10:29:51.183Z,17.68
2024-03-05T10:30:51.166Z,17.72
2024-03-05T10:31:51.177Z,17.67
2024-03-05T10:32:51.164Z,17.65
2024-03-05T10:33:51.125Z,17.78
2024-03-05T10:34:51.168Z,17.80
2024-03-05T10:35:51.187Z,17.87
2024-03-05T10:36:51.088Z,17.82
2024-03-05T10:37:51.121Z,17.95
2024-03-05T10:38:51.071Z,17.89
2024-03-05T10:39:53.069Z,18.01
2024-03-05T10:40:51.136Z,18.00
2024-03-05T10:41:52.245Z,17.98
2024-03-05T10:42:51.021Z,18.07
2024-03-05T10:43:51.060Z,18.10
2024-03-05T10:44:51.003Z,18.13
2024-03-05T10:45:50.990Z,18.13
2024-03-05T10:46:51.046Z,18.20
2024-03-05T10:47:51.105Z,18.18
2024-03-05T10:48:50.981Z,18.19
2024-03-05T10:49:51.032Z,18.29
2024-03-05T10:50:50.936Z,18.26
2024-03-05T10:51:50.947Z,18.25
2024-03-05T10:52:51.683Z,18.40
2024-03-05T10:53:50.932Z,18.33
2024-03-05T10:54:50.893Z,18.38
2024-03-05T10:55:52.689Z,18.49
2024-03-05T10:56:51.021Z,18.50
2024-03-05T10:57:50.852Z,18.52
2024-03-05T10:58:50.891Z,18.49
2024-03-05T10:59:50.841Z,18.63
2024-03-05T11:00:50.878Z,18.56
2024-03-05T11:01:50.902Z,18.73
2024-03-05T11:02:50.803Z,18.66
2024-03-05T11:03:50.791Z,18.68
2024-03-05T11:04:50.922Z,18.77
2024-03-05T11:05:51.178Z,18.71
2024-03-05T11:06:50.757Z,18.73
2024-03-05T11:07:50.773Z,18.77
2024-03-05T11:08:50.734Z,18.70
2024-03-05T11:09:50.780Z,18.75
2024-03-05T11:10:50.797Z,18.84
2024-03-05T11:11:50.838Z,18.75
2024-03-05T11:12:50.681Z,18.84
2024-03-05T11:13:50.819Z,18.92
2024-03-05T11:14:50.763Z,18.86
2024-03-05T11:15:50.781Z,18.92
2024-03-05T11:16:51.694Z,18.92
2024-03-05T11:17:50.769Z,18.95
2024-03-05T11:18:50.614Z,18.88
2024-03-05T11:19:50.724Z,18.93
2024-03-05T11:20:50.636Z,18.95
2024-03-05T11:21:50.598Z,19.00
2024-03-05T11:22:50.671Z,19.00
2024-03-05T11:23:50.605Z,19.04
2024-03-05T11:24:50.550Z,19.08
2024-03-05T11:25:50.584Z,19.04
2024-03-05T11:26:50.527Z,19.02
2024-03-05T11:27:50.620Z,19.07
2024-03-05T11:28:50.537Z,19.15
2024-03-05T11:29:50.501Z,19.12
2024-03-05T11:30:50.478Z,19.15
2024-03-05T11:31:50.527Z,19.16
2024-03-05T11:32:50.482Z,19.19
2024-03-05T11:33:50.474Z,19.24
2024-03-05T11:34:50.477Z,19.15
2024-03-05T11:35:50.459Z,19.14
2024-03-05T11:36:50.431Z,19.19
2024-03-05T11:37:50.717Z,19.30
2024-03-05T11:38:50.455Z,19.29
2024-03-05T11:39:50.426Z,19.30
2024-03-05T11:40:50.410Z,19.33
2024-03-05T11:41:50.486Z,19.31
2024-03-05T11:42:50.339Z,19.41
2024-03-05T11:43:50.415Z,19.27
2024-03-05T11:44:50.351Z,19.41
2024-03-05T11:45:50.344Z,19.30
2024-03-05T11:46:50.318Z,19.49
2024-03-05T11:47:50.382Z,19.48
2024-03-05T11:48:50.271Z,19.31
2024-03-05T11:49:50.367Z,19.48
2024-03-05T11:50:50.265Z,19.39
2024-03-05T11:51:50.258Z,19.37
2024-03-05T11:52:50.475Z,19.40
2024-03-05T11:53:50.315Z,19.39
2024-03-05T11:54:50.214Z,19.41
2024-03-05T11:55:50.218Z,19.40
2024-03-05T11:56:50.184Z,19.45
2024-03-05T11:57:50.209Z,19.36
2024-03-05T11:58:50.174Z,19.48
2024-03-05T11:59:50.162Z,19.40
2024-03-05T12:00:50.136Z,19.51
2024-03-05T12:01:50.186Z,19.45
2024-03-05T12:02:50.177Z,19.55
2024-03-05T12:03:50.144Z,19.51
2024-03-05T12:04:50.434Z,19.52
2024-03-05T12:05:50.093Z,19.49
2024-03-05T12:06:50.097Z,19.66
2024-03-05T12:07:50.119Z,19.56
2024-03-05T12:08:50.085Z,19.52
2024-03-05T12:09:50.133Z,19.51
2024-03-05T12:10:50.076Z,19.54
2024-03-05T12:11:50.042Z,19.64
2024-03-05T12:12:50.001Z,19.58
2024-03-05T12:13:50.198Z,19.63
2024-03-05T12:14:49.977Z,19.66
2024-03-05T12:15:49.967Z,19.66
2024-03-05T12:16:50.033Z,19.77
2024-03-05T12:17:50.231Z,19.67
2024-03-05T12:18:49.946Z,19.63
2024-03-05T12:19:49.940Z,19.63
2024-03-05T12:20:49.910Z,19.64
2024-03-05T12:21:49.923Z,19.69
2024-03-05T12:22:49.936Z,19.59
2024-03-05T12:23:49.896Z,19.69
2024-03-05T12:24:49.896Z,19.71
2024-03-05T12:25:49.934Z,19.71
2024-03-05T12:26:49.849Z,19.69
2024-03-05T12:27:49.831Z,19.74
2024-03-05T12:28:49.852Z,19.70
2024-03-05T12:29:49.961Z,19.76
2024-03-05T12:30:49.808Z,19.79
2024-03-05T12:31:49.817Z,19.85
2024-03-05T12:32:49.910Z,19.88
2024-03-05T12:33:49.779Z,19.86
2024-03-05T12:34:49.883Z,19.91
2024-03-05T12:35:49.792Z,19.95
2024-03-05T12:36:49.741Z,19.88
2024-03-05T12:37:51.238Z,19.86
2024-03-05T12:38:49.726Z,19.94
2024-03-05T12:39:49.701Z,19.94
2024-03-05T12:40:49.736Z,20.03
2024-03-05T12:41:49.708Z,20.06
2024-03-05T12:42:49.665Z,20.02
2024-03-05T12:43:49.730Z,20.07
2024-03-05T12:44:49.645Z,20.11
2024-03-05T12:45:49.652Z,20.13
2024-03-05T12:46:49.653Z,20.07
2024-03-05T12:47:49.628Z,20.06
2024-03-05T12:48:49.606Z,20.13
2024-03-05T12:49:49.781Z,20.11
2024-03-05T12:50:49.592Z,20.14
2024-03-05T12:51:49.565Z,20.02
2024-03-05T12:52:49.593Z,20.03
2024-03-05T12:53:52.634Z,20.07
2024-03-05T12:54:49.528Z,20.03
2024-03-05T12:55:49.544Z,19.99
2024-03-05T12:56:49.573Z,19.99
2024-03-05T12:57:49.490Z,19.94
2024-03-05T12:58:49.569Z,19.84
2024-03-05T12:59:49.673Z,19.99
2024-03-05T13:00:49.465Z,19.86
2024-03-05T13:01:49.615Z,19.86
2024-03-05T13:02:49.445Z,19.88
2024-03-05T13:03:49.433Z,19.82
2024-03-05T13:04:49.473Z,19.81
2024-03-05T13:05:49.414Z,19.62
2024-03-05T13:06:49.405Z,19.69
2024-03-05T13:07:49.486Z,19.62